Terminal Aerodrome Forecast
Issued by NWS Cleveland, OH

Home | Current Version | Previous Version | Graphics & Text | Print | Product List | Glossary On
Versions: 1 2 3 4 5 6 7 8 9 10 11 12 13 14 15 16 17 18 19 20
194
FTUS41 KCLE 211312 AAA
TAFYNG
TAF AMD
KYNG 211312Z 2113/2212 08007KT P6SM VCSH BKN025 OVC035
      TEMPO 2113/2116 5SM -SHRA BKN010
     FM211600 08007KT 5SM -SHRA BKN010 OVC040
     FM220400 36003KT 6SM BR OVC100
     FM220700 32004KT 3SM BR BKN200=

USA.gov is the U.S. government's official web portal to all federal, state and local government web resources and services.